sensor_id;sensor_type;location;lat;lon;timestamp;pressure;altitude;pressure_sealevel;temperature;humidity
19526;BME280;9907;42.676;26.348;2022-08-21T00:01:57;98210.31;;;25.01;63.06
19526;BME280;9907;42.676;26.348;2022-08-21T00:04:22;98214.13;;;25.00;62.88
19526;BME280;9907;42.676;26.348;2022-08-21T00:06:50;98204.25;;;24.99;62.94
19526;BME280;9907;42.676;26.348;2022-08-21T00:09:16;98207.00;;;24.99;63.00
19526;BME280;9907;42.676;26.348;2022-08-21T00:11:42;98200.09;;;24.80;63.09
19526;BME280;9907;42.676;26.348;2022-08-21T00:14:09;98201.19;;;24.79;63.47
19526;BME280;9907;42.676;26.348;2022-08-21T00:16:35;98201.03;;;24.86;62.99
19526;BME280;9907;42.676;26.348;2022-08-21T00:19:02;98202.81;;;24.80;63.04
19526;BME280;9907;42.676;26.348;2022-08-21T00:21:28;98189.28;;;24.85;62.07
19526;BME280;9907;42.676;26.348;2022-08-21T00:23:54;98192.59;;;24.87;62.52
19526;BME280;9907;42.676;26.348;2022-08-21T00:26:19;98196.97;;;24.88;63.78
19526;BME280;9907;42.676;26.348;2022-08-21T00:28:45;98191.53;;;24.88;63.25
19526;BME280;9907;42.676;26.348;2022-08-21T00:31:11;98190.69;;;24.88;63.00
19526;BME280;9907;42.676;26.348;2022-08-21T00:33:37;98191.78;;;24.87;62.89
19526;BME280;9907;42.676;26.348;2022-08-21T00:36:03;98183.81;;;24.85;63.53
19526;BME280;9907;42.676;26.348;2022-08-21T00:38:29;98184.66;;;24.86;63.79
19526;BME280;9907;42.676;26.348;2022-08-21T00:40:58;98184.06;;;24.84;63.19
19526;BME280;9907;42.676;26.348;2022-08-21T00:43:27;98180.50;;;24.83;63.52
19526;BME280;9907;42.676;26.348;2022-08-21T00:45:54;98167.09;;;24.82;63.19
19526;BME280;9907;42.676;26.348;2022-08-21T00:48:21;98168.97;;;24.81;63.68
19526;BME280;9907;42.676;26.348;2022-08-21T00:53:24;98162.13;;;24.79;62.99
19526;BME280;9907;42.676;26.348;2022-08-21T00:55:50;98155.84;;;24.78;63.30
19526;BME280;9907;42.676;26.348;2022-08-21T00:58:17;98157.41;;;24.74;63.11
19526;BME280;9907;42.676;26.348;2022-08-21T01:00:45;98142.91;;;24.73;63.61
19526;BME280;9907;42.676;26.348;2022-08-21T01:03:15;98136.63;;;24.73;63.83
19526;BME280;9907;42.676;26.348;2022-08-21T01:05:42;98135.78;;;24.72;63.55
19526;BME280;9907;42.676;26.348;2022-08-21T01:08:09;98136.91;;;24.71;63.70
19526;BME280;9907;42.676;26.348;2022-08-21T01:10:36;98137.97;;;24.70;63.50
19526;BME280;9907;42.676;26.348;2022-08-21T01:13:04;98135.47;;;24.69;63.88
19526;BME280;9907;42.676;26.348;2022-08-21T01:15:35;98140.09;;;24.68;63.53
19526;BME280;9907;42.676;26.348;2022-08-21T01:18:04;98133.84;;;24.68;64.50
19526;BME280;9907;42.676;26.348;2022-08-21T01:20:30;98131.91;;;24.68;64.74
19526;BME280;9907;42.676;26.348;2022-08-21T01:22:56;98137.63;;;24.67;64.69
19526;BME280;9907;42.676;26.348;2022-08-21T01:25:21;98128.53;;;24.61;64.42
19526;BME280;9907;42.676;26.348;2022-08-21T01:27:47;98129.03;;;24.58;64.68
19526;BME280;9907;42.676;26.348;2022-08-21T01:30:18;98111.00;;;24.57;64.53
19526;BME280;9907;42.676;26.348;2022-08-21T01:32:45;98108.84;;;24.59;64.98
19526;BME280;9907;42.676;26.348;2022-08-21T01:35:13;98107.19;;;24.58;64.52
19526;BME280;9907;42.676;26.348;2022-08-21T01:37:39;98111.81;;;24.58;65.10
19526;BME280;9907;42.676;26.348;2022-08-21T01:40:06;98113.75;;;24.57;65.06
19526;BME280;9907;42.676;26.348;2022-08-21T01:42:32;98118.63;;;24.55;65.23
19526;BME280;9907;42.676;26.348;2022-08-21T01:44:58;98118.03;;;24.53;65.11
19526;BME280;9907;42.676;26.348;2022-08-21T01:47:24;98107.38;;;24.52;65.06
19526;BME280;9907;42.676;26.348;2022-08-21T01:49:49;98116.06;;;24.49;65.19
19526;BME280;9907;42.676;26.348;2022-08-21T01:52:15;98109.75;;;24.48;65.16
19526;BME280;9907;42.676;26.348;2022-08-21T01:54:41;98108.38;;;24.46;65.14
19526;BME280;9907;42.676;26.348;2022-08-21T01:59:34;98109.44;;;24.45;65.86
19526;BME280;9907;42.676;26.348;2022-08-21T02:01:59;98106.72;;;24.45;66.16
19526;BME280;9907;42.676;26.348;2022-08-21T02:04:26;98107.78;;;24.44;66.33
19526;BME280;9907;42.676;26.348;2022-08-21T02:06:51;98111.19;;;24.34;66.61
19526;BME280;9907;42.676;26.348;2022-08-21T02:09:17;98104.06;;;24.33;66.53
19526;BME280;9907;42.676;26.348;2022-08-21T02:11:42;98106.78;;;24.33;66.27
19526;BME280;9907;42.676;26.348;2022-08-21T02:14:09;98110.34;;;24.34;65.76
19526;BME280;9907;42.676;26.348;2022-08-21T02:16:37;98110.34;;;24.34;65.94
19526;BME280;9907;42.676;26.348;2022-08-21T02:19:03;98110.34;;;24.34;65.83
19526;BME280;9907;42.676;26.348;2022-08-21T02:21:29;98107.63;;;24.34;65.94
19526;BME280;9907;42.676;26.348;2022-08-21T02:23:55;98106.78;;;24.33;65.73
19526;BME280;9907;42.676;26.348;2022-08-21T02:26:20;98098.84;;;24.32;66.22
19526;BME280;9907;42.676;26.348;2022-08-21T02:28:47;98102.41;;;24.32;66.15
19526;BME280;9907;42.676;26.348;2022-08-21T02:31:13;98102.66;;;24.31;66.47
19526;BME280;9907;42.676;26.348;2022-08-21T02:33:39;98099.09;;;24.30;65.72
19526;BME280;9907;42.676;26.348;2022-08-21T02:36:05;98092.81;;;24.30;66.02
19526;BME280;9907;42.676;26.348;2022-08-21T02:38:33;98098.28;;;24.30;65.47
19526;BME280;9907;42.676;26.348;2022-08-21T02:41:00;98102.06;;;24.29;66.01
19526;BME280;9907;42.676;26.348;2022-08-21T02:43:27;98093.03;;;24.28;65.68
19526;BME280;9907;42.676;26.348;2022-08-21T02:45:54;98094.13;;;24.27;65.87
19526;BME280;9907;42.676;26.348;2022-08-21T02:48:26;98097.09;;;24.26;65.94
19526;BME280;9907;42.676;26.348;2022-08-21T02:50:57;98097.09;;;24.26;65.68
19526;BME280;9907;42.676;26.348;2022-08-21T02:53:23;98100.91;;;24.24;65.72
19526;BME280;9907;42.676;26.348;2022-08-21T02:55:50;98102.00;;;24.23;65.63
19526;BME280;9907;42.676;26.348;2022-08-21T02:58:23;98103.88;;;24.23;66.71
19526;BME280;9907;42.676;26.348;2022-08-21T03:00:50;98104.13;;;24.21;66.63
19526;BME280;9907;42.676;26.348;2022-08-21T03:03:16;98105.19;;;24.20;66.81
19526;BME280;9907;42.676;26.348;2022-08-21T03:05:43;98095.38;;;24.19;66.55
19526;BME280;9907;42.676;26.348;2022-08-21T03:08:11;98092.66;;;24.19;66.88
19526;BME280;9907;42.676;26.348;2022-08-21T03:10:47;98101.06;;;24.18;67.04
19526;BME280;9907;42.676;26.348;2022-08-21T03:13:14;98096.44;;;24.18;66.23
19526;BME280;9907;42.676;26.348;2022-08-21T03:15:40;98089.31;;;24.17;66.66
19526;BME280;9907;42.676;26.348;2022-08-21T03:18:07;98095.03;;;24.16;67.47
19526;BME280;9907;42.676;26.348;2022-08-21T03:20:34;98088.75;;;24.15;68.05
19526;BME280;9907;42.676;26.348;2022-08-21T03:23:02;98087.69;;;24.16;68.27
19526;BME280;9907;42.676;26.348;2022-08-21T03:25:29;98088.16;;;24.13;68.66
19526;BME280;9907;42.676;26.348;2022-08-21T03:27:58;98088.16;;;24.13;69.18
19526;BME280;9907;42.676;26.348;2022-08-21T03:30:23;98091.94;;;24.12;68.82
19526;BME280;9907;42.676;26.348;2022-08-21T03:32:49;98095.75;;;24.11;68.97
19526;BME280;9907;42.676;26.348;2022-08-21T03:35:16;98091.13;;;24.12;70.42
19526;BME280;9907;42.676;26.348;2022-08-21T03:37:42;98097.41;;;24.12;70.33
19526;BME280;9907;42.676;26.348;2022-08-21T03:40:22;98099.81;;;24.09;71.23
19526;BME280;9907;42.676;26.348;2022-08-21T03:42:48;98110.44;;;24.10;70.73
19526;BME280;9907;42.676;26.348;2022-08-21T03:45:15;98109.63;;;24.10;70.36
19526;BME280;9907;42.676;26.348;2022-08-21T03:47:59;98116.44;;;23.79;73.34
19526;BME280;9907;42.676;26.348;2022-08-21T03:50:27;98115.94;;;23.82;72.90
19526;BME280;9907;42.676;26.348;2022-08-21T03:52:54;98114.63;;;23.85;73.27
19526;BME280;9907;42.676;26.348;2022-08-21T03:55:20;98116.94;;;23.93;72.87
19526;BME280;9907;42.676;26.348;2022-08-21T03:57:45;98122.28;;;23.71;74.45
19526;BME280;9907;42.676;26.348;2022-08-21T04:00:13;98112.88;;;23.79;73.57
19526;BME280;9907;42.676;26.348;2022-08-21T04:02:40;98122.78;;;23.85;73.21
19526;BME280;9907;42.676;26.348;2022-08-21T04:05:06;98116.50;;;23.84;73.10
19526;BME280;9907;42.676;26.348;2022-08-21T04:07:32;98110.88;;;23.74;75.54
19526;BME280;9907;42.676;26.348;2022-08-21T04:09:58;98118.91;;;23.41;78.75
19526;BME280;9907;42.676;26.348;2022-08-21T04:12:23;98122.75;;;23.16;79.44
19526;BME280;9907;42.676;26.348;2022-08-21T04:14:49;98125.22;;;23.29;79.84
19526;BME280;9907;42.676;26.348;2022-08-21T04:17:17;98133.59;;;23.51;78.77
19526;BME280;9907;42.676;26.348;2022-08-21T04:19:43;98131.78;;;23.68;77.51
19526;BME280;9907;42.676;26.348;2022-08-21T04:22:08;98135.03;;;23.82;78.03
19526;BME280;9907;42.676;26.348;2022-08-21T04:24:34;98139.13;;;23.96;78.14
19526;BME280;9907;42.676;26.348;2022-08-21T04:27:00;98140.94;;;24.07;77.97
19526;BME280;9907;42.676;26.348;2022-08-21T04:29:25;98148.84;;;24.20;77.29
19526;BME280;9907;42.676;26.348;2022-08-21T04:31:51;98163.75;;;24.30;76.80
19526;BME280;9907;42.676;26.348;2022-08-21T04:34:17;98166.09;;;24.38;75.84
19526;BME280;9907;42.676;26.348;2022-08-21T04:36:43;98180.63;;;24.43;75.77
19526;BME280;9907;42.676;26.348;2022-08-21T04:39:09;98178.84;;;24.49;75.92
19526;BME280;9907;42.676;26.348;2022-08-21T04:41:34;98177.84;;;24.55;75.39
19526;BME280;9907;42.676;26.348;2022-08-21T04:44:02;98197.53;;;24.57;75.24
19526;BME280;9907;42.676;26.348;2022-08-21T04:46:27;98191.66;;;24.65;74.77
19526;BME280;9907;42.676;26.348;2022-08-21T04:48:53;98196.69;;;24.73;75.36
19526;BME280;9907;42.676;26.348;2022-08-21T04:51:23;98207.81;;;24.83;77.99
19526;BME280;9907;42.676;26.348;2022-08-21T04:56:23;98207.41;;;24.91;78.77
19526;BME280;9907;42.676;26.348;2022-08-21T04:58:52;98206.66;;;25.12;78.08
19526;BME280;9907;42.676;26.348;2022-08-21T05:01:24;98206.13;;;25.32;77.67
19526;BME280;9907;42.676;26.348;2022-08-21T05:03:53;98213.09;;;25.61;77.91
19526;BME280;9907;42.676;26.348;2022-08-21T05:06:20;98206.13;;;25.92;77.11
19526;BME280;9907;42.676;26.348;2022-08-21T05:08:49;98195.78;;;26.21;75.84
19526;BME280;9907;42.676;26.348;2022-08-21T05:11:17;98202.94;;;26.49;74.77
19526;BME280;9907;42.676;26.348;2022-08-21T05:13:43;98200.09;;;26.71;73.93
19526;BME280;9907;42.676;26.348;2022-08-21T05:16:09;98188.47;;;26.85;71.97
19526;BME280;9907;42.676;26.348;2022-08-21T05:18:34;98187.72;;;26.95;72.18
19526;BME280;9907;42.676;26.348;2022-08-21T05:21:00;98182.69;;;27.19;71.41
19526;BME280;9907;42.676;26.348;2022-08-21T05:23:25;98196.06;;;27.52;69.08
19526;BME280;9907;42.676;26.348;2022-08-21T05:25:52;98190.97;;;27.81;67.56
19526;BME280;9907;42.676;26.348;2022-08-21T05:28:18;98186.94;;;28.03;67.89
19526;BME280;9907;42.676;26.348;2022-08-21T05:30:43;98188.66;;;28.20;67.04
19526;BME280;9907;42.676;26.348;2022-08-21T05:33:09;98188.72;;;28.45;66.52
19526;BME280;9907;42.676;26.348;2022-08-21T05:35:35;98188.72;;;28.55;65.37
19526;BME280;9907;42.676;26.348;2022-08-21T05:38:01;98183.81;;;28.82;62.06
19526;BME280;9907;42.676;26.348;2022-08-21T05:40:26;98180.50;;;29.06;63.28
19526;BME280;9907;42.676;26.348;2022-08-21T05:42:54;98184.88;;;29.22;60.78
19526;BME280;9907;42.676;26.348;2022-08-21T05:45:19;98192.59;;;29.30;60.45
19526;BME280;9907;42.676;26.348;2022-08-21T05:47:45;98195.31;;;29.45;59.57
19526;BME280;9907;42.676;26.348;2022-08-21T05:50:11;98183.13;;;29.61;59.55
19526;BME280;9907;42.676;26.348;2022-08-21T05:52:36;98189.41;;;29.82;58.76
19526;BME280;9907;42.676;26.348;2022-08-21T05:55:03;98192.16;;;29.87;58.65
19526;BME280;9907;42.676;26.348;2022-08-21T05:57:29;98196.81;;;29.86;58.09
19526;BME280;9907;42.676;26.348;2022-08-21T05:59:54;98193.50;;;29.94;57.58
19526;BME280;9907;42.676;26.348;2022-08-21T06:02:20;98203.66;;;29.99;57.69
19526;BME280;9907;42.676;26.348;2022-08-21T06:04:46;98202.50;;;30.15;56.54
19526;BME280;9907;42.676;26.348;2022-08-21T06:07:12;98206.19;;;30.39;55.80
19526;BME280;9907;42.676;26.348;2022-08-21T06:09:38;98202.22;;;30.61;54.42
19526;BME280;9907;42.676;26.348;2022-08-21T06:12:09;98199.06;;;30.77;54.28
19526;BME280;9907;42.676;26.348;2022-08-21T06:14:35;98202.78;;;30.97;54.02
19526;BME280;9907;42.676;26.348;2022-08-21T06:17:04;98199.88;;;31.12;53.28
19526;BME280;9907;42.676;26.348;2022-08-21T06:19:29;98196.56;;;31.15;52.72
19526;BME280;9907;42.676;26.348;2022-08-21T06:21:55;98197.28;;;31.25;52.08
19526;BME280;9907;42.676;26.348;2022-08-21T06:24:20;98201.28;;;31.38;52.21
19526;BME280;9907;42.676;26.348;2022-08-21T06:26:46;98202.94;;;31.39;51.60
19526;BME280;9907;42.676;26.348;2022-08-21T06:29:12;98194.25;;;31.51;51.24
19526;BME280;9907;42.676;26.348;2022-08-21T06:31:41;98192.47;;;31.65;50.58
19526;BME280;9907;42.676;26.348;2022-08-21T06:34:07;98197.56;;;31.76;50.26
19526;BME280;9907;42.676;26.348;2022-08-21T06:36:33;98198.50;;;31.91;49.73
19526;BME280;9907;42.676;26.348;2022-08-21T06:38:58;98202.25;;;32.00;49.22
19526;BME280;9907;42.676;26.348;2022-08-21T06:41:24;98198.28;;;32.11;48.53
19526;BME280;9907;42.676;26.348;2022-08-21T06:43:50;98203.06;;;32.24;48.60
19526;BME280;9907;42.676;26.348;2022-08-21T06:46:15;98199.25;;;32.39;48.39
19526;BME280;9907;42.676;26.348;2022-08-21T06:48:41;98201.78;;;32.54;47.64
19526;BME280;9907;42.676;26.348;2022-08-21T06:51:06;98197.50;;;32.66;47.67
19526;BME280;9907;42.676;26.348;2022-08-21T06:53:32;98197.72;;;32.70;47.27
19526;BME280;9907;42.676;26.348;2022-08-21T06:55:57;98197.13;;;32.87;46.10
19526;BME280;9907;42.676;26.348;2022-08-21T06:58:23;98190.31;;;32.98;46.07
19526;BME280;9907;42.676;26.348;2022-08-21T07:00:49;98189.34;;;33.07;45.87
19526;BME280;9907;42.676;26.348;2022-08-21T07:03:32;98191.19;;;33.12;44.80
19526;BME280;9907;42.676;26.348;2022-08-21T07:05:58;98175.22;;;33.22;45.49
19526;BME280;9907;42.676;26.348;2022-08-21T07:08:25;98175.34;;;33.31;44.94
19526;BME280;9907;42.676;26.348;2022-08-21T07:10:51;98174.56;;;33.44;43.88
19526;BME280;9907;42.676;26.348;2022-08-21T07:13:17;98166.25;;;33.58;43.70
19526;BME280;9907;42.676;26.348;2022-08-21T07:15:42;98166.91;;;33.68;43.37
19526;BME280;9907;42.676;26.348;2022-08-21T07:18:08;98165.38;;;33.76;43.75
19526;BME280;9907;42.676;26.348;2022-08-21T07:20:33;98160.19;;;33.97;43.25
19526;BME280;9907;42.676;26.348;2022-08-21T07:23:03;98161.53;;;34.13;42.96
19526;BME280;9907;42.676;26.348;2022-08-21T07:25:30;98166.22;;;34.26;42.32
19526;BME280;9907;42.676;26.348;2022-08-21T07:27:56;98153.91;;;34.32;42.21
19526;BME280;9907;42.676;26.348;2022-08-21T07:30:22;98159.00;;;34.39;41.40
19526;BME280;9907;42.676;26.348;2022-08-21T07:32:48;98147.09;;;34.38;41.49
19526;BME280;9907;42.676;26.348;2022-08-21T07:35:18;98150.41;;;34.62;41.22
19526;BME280;9907;42.676;26.348;2022-08-21T07:37:44;98139.47;;;34.80;41.18
19526;BME280;9907;42.676;26.348;2022-08-21T07:40:10;98137.19;;;34.82;40.60
19526;BME280;9907;42.676;26.348;2022-08-21T07:42:41;98134.72;;;35.02;40.54
19526;BME280;9907;42.676;26.348;2022-08-21T07:45:07;98132.06;;;35.20;40.34
19526;BME280;9907;42.676;26.348;2022-08-21T07:47:33;98123.63;;;35.33;39.33
19526;BME280;9907;42.676;26.348;2022-08-21T07:49:59;98132.47;;;35.35;39.73
19526;BME280;9907;42.676;26.348;2022-08-21T07:52:24;98129.75;;;35.52;38.95
19526;BME280;9907;42.676;26.348;2022-08-21T07:54:49;98124.66;;;35.94;38.26
19526;BME280;9907;42.676;26.348;2022-08-21T07:57:15;98127.25;;;35.82;38.63
19526;BME280;9907;42.676;26.348;2022-08-21T07:59:41;98123.56;;;36.29;37.81
19526;BME280;9907;42.676;26.348;2022-08-21T08:02:06;98109.34;;;36.48;36.95
19526;BME280;9907;42.676;26.348;2022-08-21T08:04:32;98109.84;;;36.76;37.45
19526;BME280;9907;42.676;26.348;2022-08-21T08:06:57;98104.53;;;37.17;36.27
19526;BME280;9907;42.676;26.348;2022-08-21T08:09:23;98104.06;;;37.82;35.71
19526;BME280;9907;42.676;26.348;2022-08-21T08:11:48;98107.78;;;37.66;35.56
19526;BME280;9907;42.676;26.348;2022-08-21T08:14:14;98104.06;;;37.82;34.96
19526;BME280;9907;42.676;26.348;2022-08-21T08:16:41;98100.44;;;38.11;34.47
19526;BME280;9907;42.676;26.348;2022-08-21T08:19:07;98098.75;;;38.93;33.62
19526;BME280;9907;42.676;26.348;2022-08-21T08:21:32;98106.81;;;39.07;33.61
19526;BME280;9907;42.676;26.348;2022-08-21T08:23:59;98097.91;;;38.60;34.55
19526;BME280;9907;42.676;26.348;2022-08-21T08:26:24;98096.91;;;38.23;34.06
19526;BME280;9907;42.676;26.348;2022-08-21T08:28:50;98090.25;;;38.36;33.82
19526;BME280;9907;42.676;26.348;2022-08-21T08:31:15;98092.50;;;38.42;33.83
19526;BME280;9907;42.676;26.348;2022-08-21T08:33:42;98087.59;;;38.93;33.53
19526;BME280;9907;42.676;26.348;2022-08-21T08:36:15;98080.88;;;39.18;33.07
19526;BME280;9907;42.676;26.348;2022-08-21T08:38:42;98082.94;;;39.42;32.51
19526;BME280;9907;42.676;26.348;2022-08-21T08:41:17;98080.25;;;39.33;32.75
19526;BME280;9907;42.676;26.348;2022-08-21T08:43:57;98071.59;;;39.26;32.77
19526;BME280;9907;42.676;26.348;2022-08-21T08:46:36;98076.06;;;39.27;32.42
19526;BME280;9907;42.676;26.348;2022-08-21T08:49:11;98074.91;;;39.28;32.53
19526;BME280;9907;42.676;26.348;2022-08-21T08:54:55;98060.81;;;39.49;32.31
19526;BME280;9907;42.676;26.348;2022-08-21T08:57:25;98064.78;;;39.72;31.93
19526;BME280;9907;42.676;26.348;2022-08-21T08:59:56;98056.75;;;39.71;31.88
19526;BME280;9907;42.676;26.348;2022-08-21T09:02:23;98056.38;;;39.36;32.22
19526;BME280;9907;42.676;26.348;2022-08-21T09:04:50;98054.31;;;38.88;32.88
19526;BME280;9907;42.676;26.348;2022-08-21T09:12:42;98038.03;;;38.04;34.00
19526;BME280;9907;42.676;26.348;2022-08-21T09:18:26;98040.97;;;37.57;33.90
19526;BME280;9907;42.676;26.348;2022-08-21T09:21:15;98041.41;;;36.83;35.42
19526;BME280;9907;42.676;26.348;2022-08-21T09:27:02;98029.19;;;35.81;37.09
19526;BME280;9907;42.676;26.348;2022-08-21T09:29:30;98026.34;;;35.47;37.71
19526;BME280;9907;42.676;26.348;2022-08-21T09:32:18;98020.88;;;35.16;37.37
19526;BME280;9907;42.676;26.348;2022-08-21T09:37:20;98016.63;;;34.35;38.31
19526;BME280;9907;42.676;26.348;2022-08-21T09:39:45;98020.31;;;34.21;39.39
19526;BME280;9907;42.676;26.348;2022-08-21T09:42:11;98015.97;;;33.93;39.69
19526;BME280;9907;42.676;26.348;2022-08-21T09:44:46;98019.28;;;33.82;39.89
19526;BME280;9907;42.676;26.348;2022-08-21T09:47:12;98011.75;;;33.73;39.62
19526;BME280;9907;42.676;26.348;2022-08-21T09:49:40;98012.00;;;33.36;40.19
19526;BME280;9907;42.676;26.348;2022-08-21T09:52:19;98020.66;;;32.75;40.29
19526;BME280;9907;42.676;26.348;2022-08-21T09:54:51;98012.44;;;32.24;41.00
19526;BME280;9907;42.676;26.348;2022-08-21T09:57:23;98012.84;;;32.31;41.49
19526;BME280;9907;42.676;26.348;2022-08-21T10:00:17;98007.53;;;32.34;41.63
19526;BME280;9907;42.676;26.348;2022-08-21T10:02:43;97995.16;;;32.32;41.04
19526;BME280;9907;42.676;26.348;2022-08-21T10:05:19;98002.84;;;32.35;40.71
19526;BME280;9907;42.676;26.348;2022-08-21T10:07:45;98005.47;;;32.26;40.71
19526;BME280;9907;42.676;26.348;2022-08-21T10:10:21;97990.94;;;32.02;40.00
19526;BME280;9907;42.676;26.348;2022-08-21T10:16:26;98000.97;;;31.79;41.55
19526;BME280;9907;42.676;26.348;2022-08-21T10:18:39;97999.22;;;31.46;42.44
19526;BME280;9907;42.676;26.348;2022-08-21T10:32:13;97995.16;;;31.81;42.21
19526;BME280;9907;42.676;26.348;2022-08-21T10:35:01;97991.63;;;31.75;42.33
19526;BME280;9907;42.676;26.348;2022-08-21T10:45:46;97983.91;;;31.59;43.20
19526;BME280;9907;42.676;26.348;2022-08-21T10:48:28;97985.06;;;31.71;42.99
19526;BME280;9907;42.676;26.348;2022-08-21T10:51:06;97969.97;;;31.82;43.25
19526;BME280;9907;42.676;26.348;2022-08-21T10:53:45;97974.53;;;31.92;42.81
19526;BME280;9907;42.676;26.348;2022-08-21T10:56:17;97979.09;;;31.83;42.79
19526;BME280;9907;42.676;26.348;2022-08-21T10:59:02;97962.16;;;31.71;42.78
19526;BME280;9907;42.676;26.348;2022-08-21T11:06:46;97951.66;;;31.54;42.98
19526;BME280;9907;42.676;26.348;2022-08-21T11:09:17;97959.69;;;31.51;42.91
19526;BME280;9907;42.676;26.348;2022-08-21T11:11:58;97942.47;;;31.40;43.16
19526;BME280;9907;42.676;26.348;2022-08-21T11:17:07;97935.47;;;31.48;43.17
19526;BME280;9907;42.676;26.348;2022-08-21T11:19:39;97942.75;;;31.38;42.26
19526;BME280;9907;42.676;26.348;2022-08-21T11:22:28;97932.91;;;31.32;42.85
19526;BME280;9907;42.676;26.348;2022-08-21T11:28:26;97934.56;;;31.33;42.73
19526;BME280;9907;42.676;26.348;2022-08-21T11:41:46;97909.19;;;31.13;43.39
19526;BME280;9907;42.676;26.348;2022-08-21T11:47:21;97897.00;;;31.19;42.95
19526;BME280;9907;42.676;26.348;2022-08-21T11:50:06;97901.97;;;31.17;43.03
19526;BME280;9907;42.676;26.348;2022-08-21T11:52:53;97898.38;;;31.16;43.44
19526;BME280;9907;42.676;26.348;2022-08-21T11:58:00;97901.25;;;31.11;43.52
19526;BME280;9907;42.676;26.348;2022-08-21T12:00:40;97891.59;;;31.09;43.66
19526;BME280;9907;42.676;26.348;2022-08-21T12:03:14;97894.13;;;31.05;44.28
19526;BME280;9907;42.676;26.348;2022-08-21T12:05:44;97898.31;;;31.03;45.80
19526;BME280;9907;42.676;26.348;2022-08-21T12:08:35;97891.22;;;30.97;48.23
19526;BME280;9907;42.676;26.348;2022-08-21T12:13:58;97887.00;;;30.80;52.79
19526;BME280;9907;42.676;26.348;2022-08-21T12:16:40;97878.56;;;30.72;54.65
19526;BME280;9907;42.676;26.348;2022-08-21T12:21:33;97881.81;;;30.55;55.23
19526;BME280;9907;42.676;26.348;2022-08-21T12:27:01;97873.69;;;30.40;53.50
19526;BME280;9907;42.676;26.348;2022-08-21T12:29:37;97878.16;;;30.36;57.69
19526;BME280;9907;42.676;26.348;2022-08-21T12:34:38;97881.59;;;30.23;56.74
19526;BME280;9907;42.676;26.348;2022-08-21T12:39:52;97887.44;;;30.16;59.25
19526;BME280;9907;42.676;26.348;2022-08-21T12:42:36;97882.81;;;30.12;57.51
19526;BME280;9907;42.676;26.348;2022-08-21T12:45:11;97881.19;;;30.11;57.50
19526;BME280;9907;42.676;26.348;2022-08-21T12:48:49;97884.50;;;30.08;58.18
19526;BME280;9907;42.676;26.348;2022-08-21T12:50:54;97887.31;;;30.03;51.80
19526;BME280;9907;42.676;26.348;2022-08-21T12:53:35;97889.81;;;29.99;58.15
19526;BME280;9907;42.676;26.348;2022-08-21T12:56:10;97881.31;;;29.95;55.52
19526;BME280;9907;42.676;26.348;2022-08-21T12:58:46;97884.09;;;29.90;53.24
19526;BME280;9907;42.676;26.348;2022-08-21T13:01:27;97877.78;;;29.90;56.74
19526;BME280;9907;42.676;26.348;2022-08-21T13:03:55;97884.41;;;29.89;57.79
19526;BME280;9907;42.676;26.348;2022-08-21T13:06:23;97886.59;;;29.92;58.72
19526;BME280;9907;42.676;26.348;2022-08-21T13:08:56;97883.00;;;29.91;58.92
19526;BME280;9907;42.676;26.348;2022-08-21T13:11:23;97888.00;;;29.89;57.37
19526;BME280;9907;42.676;26.348;2022-08-21T13:13:51;97887.44;;;29.87;56.80
19526;BME280;9907;42.676;26.348;2022-08-21T13:16:26;97885.25;;;29.84;56.84
19526;BME280;9907;42.676;26.348;2022-08-21T13:19:01;97885.59;;;29.78;57.45
19526;BME280;9907;42.676;26.348;2022-08-21T13:21:32;97877.59;;;29.76;57.50
19526;BME280;9907;42.676;26.348;2022-08-21T13:24:17;97880.91;;;29.78;58.47
19526;BME280;9907;42.676;26.348;2022-08-21T13:26:43;97871.00;;;29.77;58.04
19526;BME280;9907;42.676;26.348;2022-08-21T13:29:11;97861.06;;;29.81;57.61
19526;BME280;9907;42.676;26.348;2022-08-21T13:31:39;97866.25;;;29.83;57.79
19526;BME280;9907;42.676;26.348;2022-08-21T13:34:09;97853.63;;;29.82;54.70
19526;BME280;9907;42.676;26.348;2022-08-21T13:36:39;97849.75;;;29.83;56.52
19526;BME280;9907;42.676;26.348;2022-08-21T13:39:08;97849.75;;;29.88;56.86
19526;BME280;9907;42.676;26.348;2022-08-21T13:41:38;97835.38;;;29.91;56.34
19526;BME280;9907;42.676;26.348;2022-08-21T13:44:16;97820.75;;;29.95;56.25
19526;BME280;9907;42.676;26.348;2022-08-21T13:46:43;97825.69;;;29.99;54.68
19526;BME280;9907;42.676;26.348;2022-08-21T13:49:10;97818.75;;;30.01;55.31
19526;BME280;9907;42.676;26.348;2022-08-21T13:51:38;97816.78;;;30.07;55.26
19526;BME280;9907;42.676;26.348;2022-08-21T13:54:26;97819.53;;;30.07;54.52
19526;BME280;9907;42.676;26.348;2022-08-21T13:56:53;97828.84;;;30.11;54.32
19526;BME280;9907;42.676;26.348;2022-08-21T13:59:33;97832.72;;;30.10;54.31
19526;BME280;9907;42.676;26.348;2022-08-21T14:02:15;97831.66;;;30.06;52.96
19526;BME280;9907;42.676;26.348;2022-08-21T14:04:51;97827.81;;;30.07;52.06
19526;BME280;9907;42.676;26.348;2022-08-21T14:07:38;97828.38;;;30.04;52.04
19526;BME280;9907;42.676;26.348;2022-08-21T14:10:21;97828.97;;;30.01;50.60
19526;BME280;9907;42.676;26.348;2022-08-21T14:12:49;97836.69;;;29.99;50.55
19526;BME280;9907;42.676;26.348;2022-08-21T14:15:18;97838.03;;;30.01;50.72
19526;BME280;9907;42.676;26.348;2022-08-21T14:17:44;97852.63;;;30.02;49.86
19526;BME280;9907;42.676;26.348;2022-08-21T14:20:26;97860.59;;;30.03;50.78
19526;BME280;9907;42.676;26.348;2022-08-21T14:22:52;97877.13;;;30.03;49.66
19526;BME280;9907;42.676;26.348;2022-08-21T14:28:06;97885.31;;;30.08;50.20
19526;BME280;9907;42.676;26.348;2022-08-21T14:30:40;97919.13;;;30.14;49.96
19526;BME280;9907;42.676;26.348;2022-08-21T14:33:11;97892.84;;;29.30;53.33
19526;BME280;9907;42.676;26.348;2022-08-21T14:35:37;97907.44;;;28.56;55.78
19526;BME280;9907;42.676;26.348;2022-08-21T14:38:12;97918.94;;;28.78;55.72
19526;BME280;9907;42.676;26.348;2022-08-21T14:40:46;97902.66;;;28.92;55.26
19526;BME280;9907;42.676;26.348;2022-08-21T14:43:12;97914.28;;;28.74;54.82